Latest Weather Observations for Horn Island

IDQ60801

Issued at 7:05 pm EST Tuesday 22 July 2014 (issued every 30 minutes, with the page automatically refreshed every 10 minutes)

About weather observations | Map of weather stations | Latest weather observations for QLD | Other Formats
Station Details ID: 027058 Name: HORN ISLAND Lat: -10.58 Lon: 142.29 Height: 4.0 m
Data from the previous 72 hours. | See also: Recent months at Horn Island
Date/Time
EST
Temp
°C
App
Temp
°C
Dew
Point
Rel
Hum
%
Delta-T
°C
Wind Press
QNH
hPa
Press
MSL
hPa
Rain
since 9 am
mm
Dir
 
Spd
km/h
Gust
km/h
Spd
kts
Gust
kts
22/07:00pm 23.8 22.5 18.2 71 3.5 SE 22 32 12 17 1013.5 - 0.0
22/06:30pm 24.2 21.5 18.4 70 3.7 SE 30 43 16 23 1013.2 - 0.0
22/06:00pm 24.8 23.2 18.3 67 4.1 ESE 24 35 13 19 1013.0 1013.0 0.0
22/05:30pm 25.2 22.2 17.7 63 4.7 SE 30 39 16 21 1012.8 - 0.0
22/05:00pm 26.1 23.4 17.5 59 5.4 SE 28 41 15 22 1012.7 - 0.0
22/04:30pm 26.7 24.0 17.5 57 5.8 ESE 28 41 15 22 1012.8 - 0.0
22/04:00pm 26.2 22.4 16.7 56 5.9 ESE 32 43 17 23 1012.9 - 0.0
22/03:44pm 27.0 23.8 16.3 52 6.6 ESE 28 46 15 25 1012.9 - 0.0
22/03:30pm 27.2 24.1 16.5 52 6.6 ESE 28 35 15 19 1012.8 - 0.0
22/03:00pm 28.0 24.2 16.6 50 7.1 ESE 32 44 17 24 1012.8 1012.8 0.0
22/02:30pm 27.2 23.0 16.2 51 6.8 ESE 33 43 18 23 1013.2 - 0.0
22/02:00pm 28.0 24.1 16.9 51 6.9 ESE 33 46 18 25 1013.5 - 0.0
22/01:30pm 27.6 24.1 16.6 51 6.8 ESE 30 41 16 22 1013.9 - 0.0
22/01:00pm 27.5 24.0 17.4 54 6.3 ESE 32 46 17 25 1014.3 - 0.0
22/12:30pm 26.8 22.8 16.7 54 6.3 ESE 33 46 18 25 1014.7 - 0.0
22/12:03pm 26.8 23.4 16.7 54 6.3 ESE 30 50 16 27 1015.1 - 0.0
22/12:00pm 27.2 24.4 17.4 55 6.1 ESE 28 39 15 21 1015.3 1015.3 0.0
22/11:30am 26.3 22.7 17.1 57 5.7 SE 32 41 17 22 1015.7 - 0.0
22/11:00am 26.7 24.7 18.3 60 5.3 ESE 26 43 14 23 1016.0 - 0.0
22/10:30am 25.8 25.6 19.4 67 4.1 E 19 26 10 14 1016.3 - 0.0
22/10:00am 25.4 22.4 17.8 62 4.8 SE 30 39 16 21 1016.5 - 0.0
22/09:30am 25.8 24.9 19.0 66 4.4 SSE 22 30 12 16 1016.5 - 0.0
22/09:00am 24.5 23.9 18.4 69 3.8 SSE 19 24 10 13 1016.6 1016.6 0.0
22/08:30am 24.4 24.4 19.0 72 3.4 SSE 17 22 9 12 1016.4 - 0.0
22/08:00am 24.1 23.9 18.5 71 3.5 SSE 17 26 9 14 1016.0 - 0.0
22/07:30am 22.9 22.7 18.4 76 2.8 SSE 17 22 9 12 1015.8 - 0.0
22/07:00am 22.3 23.3 18.7 80 2.3 S 11 15 6 8 1015.4 - 0.0
22/06:30am 22.2 23.4 19.0 82 2.0 S 11 15 6 8 1015.0 - 0.0
22/06:00am 22.3 23.1 19.1 82 2.0 S 13 17 7 9 1014.8 1014.8 0.0
22/05:30am 22.0 23.4 19.5 86 1.6 S 11 13 6 7 1014.5 - 0.0
22/05:00am 21.9 23.2 19.3 85 1.7 S 11 15 6 8 1014.5 - 0.0
22/04:30am 22.9 23.5 18.7 77 2.7 SSE 13 19 7 10 1014.5 - 0.0
22/04:00am 23.0 23.9 18.5 76 2.8 S 11 17 6 9 1014.4 - 0.0
22/03:30am 23.1 23.7 18.6 76 2.8 SSE 13 19 7 10 1014.4 - 0.0
22/03:00am 22.9 24.4 18.9 78 2.5 S 9 15 5 8 1014.5 1014.5 0.0
22/02:30am 23.0 23.8 19.0 78 2.5 S 13 17 7 9 1014.8 - 0.0
22/02:00am 22.8 23.8 18.6 77 2.6 SSE 11 15 6 8 1014.9 - 0.0
22/01:30am 23.0 23.5 18.3 75 2.9 SSE 13 17 7 9 1015.0 - 0.0
22/01:00am 23.4 22.5 18.1 72 3.3 SE 20 28 11 15 1015.3 - 0.0
22/12:30am 23.5 23.2 18.2 72 3.3 SE 17 24 9 13 1015.2 - 0.0
22/12:00am 23.6 22.1 17.8 70 3.6 SE 22 32 12 17 1015.3 1015.3 0.0
 
Date/Time
EST
Temp
°C
App
Temp
°C
Dew
Point
Rel
Hum
%
Delta-T
°C
Wind Press
QNH
hPa
Press
MSL
hPa
Rain
since 9 am
mm
Dir
 
Spd
km/h
Gust
km/h
Spd
kts
Gust
kts
21/11:30pm 23.4 22.7 18.3 73 3.2 SE 19 33 10 18 1015.3 - 0.0
21/11:00pm 23.3 23.0 18.2 73 3.2 SE 17 28 9 15 1015.4 - 0.0
21/10:30pm 23.4 22.5 18.1 72 3.3 SE 20 32 11 17 1015.6 - 0.0
21/10:00pm 23.2 22.4 18.1 73 3.2 SE 19 26 10 14 1015.8 - 0.0
21/09:30pm 23.3 22.5 18.0 72 3.3 SE 19 24 10 13 1015.8 - 0.0
21/09:00pm 23.4 22.5 17.8 71 3.5 SE 19 26 10 14 1015.7 1015.7 0.0
21/08:30pm 23.6 22.6 17.6 69 3.7 SE 19 28 10 15 1015.6 - 0.0
21/08:00pm 23.7 22.5 17.4 68 3.9 SE 20 30 11 16 1015.3 - 0.0
21/07:30pm 23.8 22.7 17.8 69 3.7 SE 20 32 11 17 1014.9 - 0.0
21/07:00pm 24.0 22.3 18.0 69 3.8 SE 24 37 13 20 1014.6 - 0.0
21/06:30pm 24.1 21.3 17.4 66 4.2 SE 28 41 15 22 1014.3 - 0.0
21/06:00pm 24.7 21.7 16.9 62 4.8 SE 28 39 15 21 1014.1 1014.1 0.0
21/05:30pm 25.3 22.6 16.7 59 5.3 SE 26 39 14 21 1013.8 - 0.0
21/05:00pm 26.0 22.6 16.8 57 5.7 ESE 30 43 16 23 1013.6 - 0.0
21/04:30pm 26.4 22.9 16.6 55 6.1 ESE 30 41 16 22 1013.4 - 0.0
21/04:00pm 26.2 22.5 17.0 57 5.7 ESE 32 41 17 22 1013.4 - 0.0
21/03:30pm 26.5 23.1 17.6 58 5.6 ESE 32 39 17 21 1013.4 - 0.0
21/03:00pm 27.1 23.9 17.3 55 6.1 ESE 30 39 16 21 1013.6 1013.6 0.0
21/02:30pm 26.9 23.4 17.4 56 6.0 ESE 32 43 17 23 1013.9 - 0.0
21/02:00pm 26.8 22.8 16.7 54 6.3 ESE 33 43 18 23 1014.1 - 0.0
21/01:30pm 27.4 24.0 18.1 57 5.9 ESE 33 44 18 24 1014.5 - 0.0
21/01:00pm 26.4 23.3 17.5 58 5.6 ESE 30 41 16 22 1014.9 - 0.0
21/12:30pm 27.0 23.7 18.0 58 5.7 ESE 32 43 17 23 1015.1 - 0.0
21/12:00pm 26.7 23.1 17.2 56 5.9 ESE 32 44 17 24 1015.6 1015.6 0.0
21/11:30am 26.6 23.2 17.7 58 5.6 ESE 32 43 17 23 1015.8 - 0.0
21/11:00am 26.9 24.3 18.7 60 5.2 ESE 30 43 16 23 1016.1 - 0.0
21/10:30am 26.6 24.2 19.0 63 4.9 ESE 30 39 16 21 1016.3 - 0.0
21/10:00am 25.9 25.2 19.5 68 4.1 SE 22 30 12 16 1016.3 - 0.0
21/09:30am 25.5 24.8 19.4 69 3.9 SE 22 32 12 17 1016.4 - 0.0
21/09:00am 24.9 24.5 19.3 71 3.6 SE 20 30 11 16 1016.4 1016.4 0.0
21/08:30am 24.4 24.0 19.0 72 3.4 SE 19 28 10 15 1016.1 - 0.0
21/08:00am 24.1 24.2 19.2 74 3.1 SE 17 20 9 11 1015.9 - 0.0
21/07:30am 23.2 23.8 19.4 79 2.4 SSE 15 19 8 10 1015.7 - 0.0
21/07:00am 22.3 23.5 19.1 82 2.0 SE 11 15 6 8 1015.5 - 0.0
21/06:30am 22.3 23.5 19.1 82 2.0 SE 11 15 6 8 1015.2 - 0.0
21/06:00am 22.4 23.3 19.2 82 2.0 SSE 13 17 7 9 1014.9 1014.9 0.0
21/05:30am 22.4 23.7 19.4 83 1.9 S 11 15 6 8 1014.8 - 0.0
21/05:00am 22.7 24.2 19.7 83 1.9 SSE 11 17 6 9 1014.6 - 0.0
21/04:30am 22.6 24.0 19.6 83 1.9 SSE 11 15 6 8 1014.6 - 0.0
21/04:00am 22.9 24.4 19.7 82 2.1 SSE 11 15 6 8 1014.5 - 0.0
21/03:30am 22.9 23.9 19.5 81 2.2 SSE 13 22 7 12 1014.6 - 0.0
21/03:00am 22.8 23.8 19.4 81 2.2 SSE 13 17 7 9 1014.8 1014.8 0.0
21/02:30am 23.2 24.0 19.1 78 2.6 SE 13 20 7 11 1015.0 - 0.0
21/02:00am 23.4 23.4 18.9 76 2.9 SE 17 24 9 13 1015.2 - 0.0
21/01:30am 23.6 22.6 18.9 75 3.0 ESE 22 33 12 18 1015.4 - 0.0
21/01:00am 23.4 23.6 19.3 78 2.6 SE 17 26 9 14 1015.6 - 0.0
21/12:30am 23.4 23.3 18.7 75 3.0 SE 17 24 9 13 1015.5 - 0.0
21/12:00am 23.6 23.5 18.7 74 3.1 SE 17 30 9 16 1015.8 1015.8 0.0
 
Date/Time
EST
Temp
°C
App
Temp
°C
Dew
Point
Rel
Hum
%
Delta-T
°C
Wind Press
QNH
hPa
Press
MSL
hPa
Rain
since 9 am
mm
Dir
 
Spd
km/h
Gust
km/h
Spd
kts
Gust
kts
20/11:30pm 23.6 23.1 18.7 74 3.1 SE 19 24 10 13 1016.0 - 0.0
20/11:00pm 23.6 23.6 18.9 75 3.0 SE 17 26 9 14 1016.1 - 0.0
20/10:30pm 23.3 23.4 18.4 74 3.1 SE 15 20 8 11 1016.1 - 0.0
20/10:00pm 23.6 23.3 18.3 72 3.3 SSE 17 20 9 11 1016.0 - 0.0
20/09:30pm 23.6 23.3 18.3 72 3.3 SSE 17 24 9 13 1016.0 - 0.0
20/09:00pm 23.8 23.1 18.2 71 3.5 SE 19 30 10 16 1015.8 1015.8 0.0
20/08:30pm 23.8 23.4 18.0 70 3.6 SSE 17 26 9 14 1015.5 - 0.0
20/08:00pm 23.9 22.9 17.9 69 3.8 SE 20 30 11 16 1015.2 - 0.0
20/07:30pm 24.1 22.8 18.1 69 3.8 SE 22 30 12 16 1014.9 - 0.0
20/07:00pm 24.3 22.2 18.0 68 4.0 SE 26 39 14 21 1014.4 - 0.0
20/06:30pm 24.5 22.5 18.2 68 4.0 SE 26 39 14 21 1013.9 - 0.0
20/06:00pm 25.0 23.1 17.7 64 4.6 SE 24 35 13 19 1013.6 1013.6 0.0
20/05:30pm 25.5 22.9 17.9 63 4.8 SE 28 37 15 20 1013.3 - 0.0
20/05:00pm 26.2 23.2 18.6 63 4.8 ESE 32 43 17 23 1012.9 - 0.0
20/04:30pm 26.4 23.1 18.0 60 5.3 ESE 32 46 17 25 1012.8 - 0.0
20/04:00pm 27.1 24.4 18.4 59 5.5 ESE 30 43 16 23 1012.8 - 0.0
20/03:30pm 27.4 24.3 18.4 58 5.7 ESE 32 43 17 23 1012.9 - 0.0
20/03:00pm 27.5 24.1 18.2 57 5.9 ESE 33 44 18 24 1012.9 1012.9 0.0
20/02:30pm 27.3 24.2 18.3 58 5.7 ESE 32 41 17 22 1012.9 - 0.0
20/02:00pm 26.5 24.3 18.6 62 5.0 ESE 28 41 15 22 1013.1 - 0.0
20/01:30pm 27.3 23.8 18.0 56 5.9 ESE 33 43 18 23 1013.4 - 0.0
20/01:00pm 28.1 25.2 18.8 57 6.0 ESE 32 44 17 24 1013.6 - 0.0
20/12:30pm 27.0 23.9 18.3 59 5.5 ESE 32 48 17 26 1013.9 - 0.0
20/12:28pm 27.5 25.0 18.8 59 5.6 ESE 30 48 16 26 1013.9 - 0.0
20/12:00pm 26.9 23.7 18.5 60 5.4 ESE 33 44 18 24 1014.2 1014.2 0.0
20/11:30am 26.8 23.6 18.6 60 5.2 ESE 33 44 18 24 1014.6 - 0.0
20/11:00am 27.1 24.7 19.2 62 5.1 ESE 30 39 16 21 1014.9 - 0.0
20/10:30am 26.5 23.3 18.6 62 5.0 ESE 33 44 18 24 1015.3 - 0.0
20/10:00am 26.0 23.4 18.7 64 4.7 ESE 30 43 16 23 1015.4 - 0.0
20/09:30am 26.0 23.4 18.7 64 4.7 ESE 30 41 16 22 1015.5 - 0.0
20/09:00am 25.5 23.6 19.4 69 3.9 ESE 28 35 15 19 1015.5 1015.5 0.0
20/08:30am 25.0 22.6 19.1 70 3.8 SE 30 41 16 22 1015.3 - 0.0
20/08:00am 24.4 23.3 19.5 74 3.1 SE 24 32 13 17 1015.0 - 0.0
20/07:30am 23.7 23.4 19.2 76 2.9 SE 19 26 10 14 1014.7 - 0.0
20/07:00am 23.3 22.8 19.0 77 2.7 SE 20 26 11 14 1014.5 - 0.0
20/06:30am 23.3 22.8 19.2 78 2.6 SE 20 33 11 18 1014.3 - 0.0
20/06:00am 23.2 22.8 19.4 79 2.4 SE 20 28 11 15 1014.3 1014.3 0.0
20/05:30am 23.0 22.7 19.2 79 2.4 SE 19 28 10 15 1014.2 - 0.0
20/05:00am 23.2 22.7 19.1 78 2.6 SSE 20 32 11 17 1014.1 - 0.0
20/04:30am 23.3 22.8 19.2 78 2.6 SE 20 28 11 15 1014.1 - 0.0
20/04:00am 23.3 23.2 19.5 79 2.4 SSE 19 28 10 15 1013.9 - 0.0
20/03:30am 23.3 23.7 19.9 81 2.2 SE 17 24 9 13 1013.9 - 0.0
20/03:00am 23.0 23.9 20.0 83 1.9 SSE 15 19 8 10 1013.9 1013.9 0.0
20/02:30am 23.3 23.5 20.1 82 2.1 SE 19 26 10 14 1014.0 - 0.0
20/02:00am 23.3 23.2 19.9 81 2.2 SE 20 28 11 15 1014.0 - 0.0
20/01:30am 23.3 23.7 19.9 81 2.2 SE 17 26 9 14 1014.3 - 0.0
20/01:00am 23.3 23.8 20.1 82 2.1 SSE 17 24 9 13 1014.4 - 0.0
20/12:30am 23.6 24.4 19.9 80 2.4 SSE 15 24 8 13 1014.7 - 0.0
20/12:00am 23.6 25.2 19.9 80 2.4 SSE 11 17 6 9 1014.9 1014.9 0.0
 
Date/Time
EST
Temp
°C
App
Temp
°C
Dew
Point
Rel
Hum
%
Delta-T
°C
Wind Press
QNH
hPa
Press
MSL
hPa
Rain
since 9 am
mm
Dir
 
Spd
km/h
Gust
km/h
Spd
kts
Gust
kts
19/11:30pm 23.8 25.4 19.9 79 2.5 SSE 11 17 6 9 1015.0 - 0.0
19/11:00pm 24.0 24.4 19.9 78 2.6 SE 17 24 9 13 1014.9 - 0.0
19/10:30pm 24.2 25.1 20.1 78 2.7 ESE 15 22 8 12 1014.8 - 0.0
19/10:00pm 24.2 24.2 20.1 78 2.7 ESE 20 26 11 14 1014.8 - 0.0
19/09:30pm 24.0 24.3 19.5 76 2.9 SE 17 24 9 13 1014.8 - 0.0
19/09:00pm 24.4 23.7 19.5 74 3.1 SE 22 32 12 17 1014.6 1014.6 0.0
19/08:30pm 24.3 24.4 19.1 73 3.3 ESE 17 26 9 14 1014.4 - 0.0
19/08:00pm 24.4 23.9 19.0 72 3.4 ESE 20 28 11 15 1014.1 - 0.0
19/07:30pm 24.4 24.4 19.0 72 3.4 ESE 17 24 9 13 1013.8 - 0.0

Other Formats:

Comma delimited format used in spreadsheet applications
http://www.bom.gov.au/fwo/IDQ60801/IDQ60801.94174.axf

JavaScript Object Notation format (JSON) in row-major order
http://www.bom.gov.au/fwo/IDQ60801/IDQ60801.94174.json